createdAt,value
2017-05-27T00:00:00.450Z,0
2017-05-27T00:01:00.460Z,0
2017-05-27T00:02:00.456Z,0
2017-05-27T00:03:00.454Z,0
2017-05-27T00:04:00.455Z,0
2017-05-27T00:05:00.459Z,0
2017-05-27T00:06:00.455Z,0
2017-05-27T00:07:00.467Z,0
2017-05-27T00:08:00.467Z,0
2017-05-27T00:09:00.469Z,0
2017-05-27T00:10:00.509Z,0
2017-05-27T00:11:00.497Z,0
2017-05-27T00:12:00.495Z,0
2017-05-27T00:13:00.488Z,0
2017-05-27T00:14:00.451Z,0
2017-05-27T00:15:00.470Z,0
2017-05-27T00:16:00.491Z,0
2017-05-27T00:17:00.472Z,0
2017-05-27T00:18:00.511Z,0
2017-05-27T00:19:00.475Z,0
2017-05-27T00:20:00.474Z,0
2017-05-27T00:21:00.476Z,0
2017-05-27T00:22:00.477Z,0
2017-05-27T00:23:00.475Z,0
2017-05-27T00:24:00.474Z,0
2017-05-27T00:25:00.479Z,0
2017-05-27T00:26:00.477Z,0
2017-05-27T00:27:00.476Z,0
2017-05-27T00:28:00.475Z,0
2017-05-27T00:29:00.682Z,0
2017-05-27T00:30:00.480Z,0
2017-05-27T00:31:00.481Z,0
2017-05-27T00:32:00.481Z,0
2017-05-27T00:33:00.479Z,0
2017-05-27T00:34:00.487Z,0
2017-05-27T00:35:00.483Z,0
2017-05-27T00:36:00.482Z,0
2017-05-27T00:37:00.484Z,0
2017-05-27T00:38:00.483Z,0
2017-05-27T00:39:00.571Z,0
2017-05-27T00:40:00.471Z,0
2017-05-27T00:41:00.472Z,0
2017-05-27T00:42:00.480Z,0
2017-05-27T00:43:00.471Z,0
2017-05-27T00:44:00.476Z,0
2017-05-27T00:45:00.474Z,0
2017-05-27T00:46:00.478Z,0
2017-05-27T00:47:00.473Z,0
2017-05-27T00:48:00.478Z,0
2017-05-27T00:49:00.519Z,0
2017-05-27T00:50:00.470Z,0
2017-05-27T00:51:00.521Z,0
2017-05-27T00:52:00.523Z,0
2017-05-27T00:53:00.503Z,0
2017-05-27T00:54:00.472Z,0
2017-05-27T00:55:00.498Z,0
2017-05-27T00:56:00.503Z,0
2017-05-27T00:57:00.536Z,0
2017-05-27T00:58:00.525Z,0
2017-05-27T00:59:00.494Z,0
2017-05-27T01:00:00.534Z,0
2017-05-27T01:01:00.527Z,0
2017-05-27T01:02:00.565Z,0
2017-05-27T01:03:00.587Z,0
2017-05-27T01:04:00.513Z,0
2017-05-27T01:05:00.535Z,0
2017-05-27T01:06:00.521Z,0
2017-05-27T01:07:00.522Z,0
2017-05-27T01:08:00.586Z,0
2017-05-27T01:09:00.535Z,0
2017-05-27T01:10:00.533Z,0
2017-05-27T01:11:00.539Z,0
2017-05-27T01:12:00.522Z,0
2017-05-27T01:13:00.519Z,0
2017-05-27T01:14:00.521Z,0
2017-05-27T01:15:00.525Z,0
2017-05-27T01:16:00.537Z,0
2017-05-27T01:17:00.506Z,0
2017-05-27T01:18:00.516Z,0
2017-05-27T01:19:00.428Z,0
2017-05-27T01:20:00.430Z,0
2017-05-27T01:21:00.434Z,0
2017-05-27T01:22:00.418Z,0
2017-05-27T01:23:00.435Z,0
2017-05-27T01:24:00.419Z,0
2017-05-27T01:25:00.427Z,0
2017-05-27T01:26:00.473Z,0
2017-05-27T01:27:00.419Z,0
2017-05-27T01:28:00.468Z,0
2017-05-27T01:29:00.510Z,0
2017-05-27T01:30:00.507Z,0
2017-05-27T01:31:00.535Z,0
2017-05-27T01:32:00.522Z,0
2017-05-27T01:33:00.523Z,0
2017-05-27T01:34:00.538Z,0
2017-05-27T01:35:00.540Z,0
2017-05-27T01:36:00.539Z,0
2017-05-27T01:37:00.544Z,0
2017-05-27T01:38:00.512Z,0
2017-05-27T01:39:00.503Z,0
2017-05-27T01:40:00.505Z,0
2017-05-27T01:41:00.505Z,0
2017-05-27T01:42:00.502Z,0
2017-05-27T01:43:00.505Z,0
2017-05-27T01:44:00.503Z,0
2017-05-27T01:45:00.510Z,0
2017-05-27T01:46:00.508Z,0
2017-05-27T01:47:00.508Z,0
2017-05-27T01:48:00.507Z,0
2017-05-27T01:49:00.523Z,0
2017-05-27T01:50:00.520Z,0
2017-05-27T01:51:00.523Z,0
2017-05-27T01:52:00.525Z,0
2017-05-27T01:53:00.522Z,0
2017-05-27T01:54:00.523Z,0
2017-05-27T01:55:00.522Z,0
2017-05-27T01:56:00.524Z,0
2017-05-27T01:57:00.521Z,0
2017-05-27T01:58:00.523Z,0
2017-05-27T01:59:00.551Z,0
2017-05-27T02:00:00.551Z,0
2017-05-27T02:01:00.538Z,0
2017-05-27T02:02:00.548Z,0
2017-05-27T02:03:00.525Z,0
2017-05-27T02:04:00.555Z,0
2017-05-27T02:05:00.545Z,0
2017-05-27T02:06:00.655Z,0
2017-05-27T02:07:00.551Z,0
2017-05-27T02:08:00.548Z,0
2017-05-27T02:09:00.533Z,0
2017-05-27T02:10:00.553Z,0
2017-05-27T02:11:00.559Z,0
2017-05-27T02:12:00.539Z,0
2017-05-27T02:13:00.564Z,0
2017-05-27T02:14:00.556Z,0
2017-05-27T02:15:00.561Z,0
2017-05-27T02:16:00.607Z,0
2017-05-27T02:17:00.538Z,0
2017-05-27T02:18:00.548Z,0
2017-05-27T02:19:00.557Z,0
2017-05-27T02:20:00.464Z,0
2017-05-27T02:21:00.492Z,0
2017-05-27T02:22:00.460Z,0
2017-05-27T02:23:00.511Z,4
2017-05-27T02:24:00.453Z,4
2017-05-27T02:25:00.459Z,4
2017-05-27T02:26:00.502Z,4
2017-05-27T02:27:00.514Z,0
2017-05-27T02:28:00.461Z,4
2017-05-27T02:29:00.517Z,4
2017-05-27T02:30:00.532Z,4
2017-05-27T02:31:00.529Z,4
2017-05-27T02:32:00.533Z,4
2017-05-27T02:33:00.534Z,8
2017-05-27T02:34:00.531Z,4
2017-05-27T02:35:00.533Z,8
2017-05-27T02:36:00.535Z,8
2017-05-27T02:37:00.637Z,12
2017-05-27T02:38:00.535Z,12
2017-05-27T02:39:00.638Z,16
2017-05-27T02:40:00.570Z,16
2017-05-27T02:41:00.568Z,20
2017-05-27T02:42:00.571Z,24
2017-05-27T02:43:00.572Z,24
2017-05-27T02:44:00.579Z,28
2017-05-27T02:45:00.678Z,36
2017-05-27T02:46:00.559Z,36
2017-05-27T02:47:00.588Z,44
2017-05-27T02:48:00.548Z,48
2017-05-27T02:49:00.572Z,56
2017-05-27T02:50:00.549Z,64
2017-05-27T02:51:00.559Z,72
2017-05-27T02:52:00.553Z,80
2017-05-27T02:53:00.551Z,92
2017-05-27T02:54:00.556Z,100
2017-05-27T02:55:00.553Z,116
2017-05-27T02:56:00.555Z,128
2017-05-27T02:57:00.574Z,144
2017-05-27T02:58:00.558Z,164
2017-05-27T02:59:00.555Z,180
2017-05-27T03:00:00.537Z,200
2017-05-27T03:01:00.557Z,224
2017-05-27T03:02:00.557Z,248
2017-05-27T03:03:00.556Z,276
2017-05-27T03:04:00.559Z,308
2017-05-27T03:05:00.562Z,336
2017-05-27T03:06:00.562Z,368
2017-05-27T03:07:00.556Z,404
2017-05-27T03:08:00.558Z,444
2017-05-27T03:09:00.559Z,484
2017-05-27T03:10:00.559Z,528
2017-05-27T03:11:00.561Z,576
2017-05-27T03:12:00.562Z,624
2017-05-27T03:13:00.563Z,672
2017-05-27T03:14:00.562Z,724
2017-05-27T03:15:00.564Z,776
2017-05-27T03:16:00.564Z,836
2017-05-27T03:17:00.563Z,896
2017-05-27T03:18:00.563Z,960
2017-05-27T03:19:00.564Z,1024
2017-05-27T03:20:00.562Z,1092
2017-05-27T03:21:00.566Z,1164
2017-05-27T03:22:00.568Z,1236
2017-05-27T03:23:00.566Z,1312
2017-05-27T03:24:00.568Z,1392
2017-05-27T03:25:00.568Z,1464
2017-05-27T03:26:00.571Z,1560
2017-05-27T03:27:00.566Z,1644
2017-05-27T03:28:00.569Z,1732
2017-05-27T03:29:00.569Z,1816
2017-05-27T03:30:00.595Z,1904
2017-05-27T03:31:00.607Z,1980
2017-05-27T03:32:00.593Z,2064
2017-05-27T03:33:00.592Z,2156
2017-05-27T03:34:00.599Z,2248
2017-05-27T03:35:00.596Z,2340
2017-05-27T03:36:00.588Z,2440
2017-05-27T03:37:00.599Z,2540
2017-05-27T03:38:00.593Z,2640
2017-05-27T03:39:00.616Z,2732
2017-05-27T03:40:00.576Z,2824
2017-05-27T03:41:00.575Z,2924
2017-05-27T03:42:00.576Z,3044
2017-05-27T03:43:00.574Z,3176
2017-05-27T03:44:00.577Z,3280
2017-05-27T03:45:00.574Z,3460
2017-05-27T03:46:00.576Z,3596
2017-05-27T03:47:00.585Z,3744
2017-05-27T03:48:00.578Z,3928
2017-05-27T03:49:00.580Z,3972
2017-05-27T03:50:00.569Z,3972
2017-05-27T03:51:00.571Z,4044
2017-05-27T03:52:00.575Z,4104
2017-05-27T03:53:00.573Z,4168
2017-05-27T03:54:00.569Z,4216
2017-05-27T03:55:00.572Z,4284
2017-05-27T03:56:00.572Z,4424
2017-05-27T03:57:00.576Z,4592
2017-05-27T03:58:00.574Z,4720
2017-05-27T03:59:00.573Z,4864
2017-05-27T04:00:00.585Z,4972
2017-05-27T04:01:00.587Z,5004
2017-05-27T04:02:00.587Z,5096
2017-05-27T04:03:00.591Z,5212
2017-05-27T04:04:00.588Z,5140
2017-05-27T04:05:00.589Z,5176
2017-05-27T04:06:00.587Z,5240
2017-05-27T04:07:00.586Z,5348
2017-05-27T04:08:00.592Z,5372
2017-05-27T04:09:00.591Z,5444
2017-05-27T04:10:00.577Z,5520
2017-05-27T04:11:00.560Z,5592
2017-05-27T04:12:00.579Z,5688
2017-05-27T04:13:00.579Z,5768
2017-05-27T04:14:00.581Z,5852
2017-05-27T04:15:00.578Z,5940
2017-05-27T04:16:00.583Z,6000
2017-05-27T04:17:00.523Z,6060
2017-05-27T04:18:00.584Z,6116
2017-05-27T04:19:00.582Z,6184
2017-05-27T04:20:00.594Z,6260
2017-05-27T04:21:00.601Z,6292
2017-05-27T04:22:00.598Z,6392
2017-05-27T04:23:00.603Z,6464
2017-05-27T04:24:00.596Z,6544
2017-05-27T04:25:00.602Z,6600
2017-05-27T04:26:00.599Z,6680
2017-05-27T04:27:00.598Z,6760
2017-05-27T04:28:00.598Z,6840
2017-05-27T04:29:00.598Z,6892
2017-05-27T04:30:00.600Z,6936
2017-05-27T04:31:00.603Z,7000
2017-05-27T04:32:00.601Z,7076
2017-05-27T04:33:00.601Z,7144
2017-05-27T04:34:00.601Z,7208
2017-05-27T04:35:00.605Z,7272
2017-05-27T04:36:00.606Z,7332
2017-05-27T04:37:00.617Z,7400
2017-05-27T04:38:00.612Z,7464
2017-05-27T04:39:00.606Z,7524
2017-05-27T04:40:00.616Z,7540
2017-05-27T04:41:00.703Z,7600
2017-05-27T04:42:00.632Z,7688
2017-05-27T04:43:00.745Z,7700
2017-05-27T04:44:00.616Z,7768
2017-05-27T04:45:00.649Z,7840
2017-05-27T04:46:00.648Z,7896
2017-05-27T04:47:00.637Z,7948
2017-05-27T04:48:00.728Z,7992
2017-05-27T04:49:00.627Z,8020
2017-05-27T04:50:00.678Z,8104
2017-05-27T04:51:00.639Z,8164
2017-05-27T04:52:00.633Z,8228
2017-05-27T04:53:00.636Z,8288
2017-05-27T04:54:00.638Z,8328
2017-05-27T04:55:00.636Z,8396
2017-05-27T04:56:00.753Z,8448
2017-05-27T04:57:00.630Z,8532
2017-05-27T04:58:00.612Z,8584
2017-05-27T04:59:00.645Z,8640
2017-05-27T05:00:00.622Z,8696
2017-05-27T05:01:00.705Z,8684
2017-05-27T05:02:00.685Z,8744
2017-05-27T05:03:00.610Z,8832
2017-05-27T05:04:00.607Z,8880
2017-05-27T05:05:00.609Z,8940
2017-05-27T05:06:00.613Z,8996
2017-05-27T05:07:00.608Z,9068
2017-05-27T05:08:00.609Z,9148
2017-05-27T05:09:00.613Z,9192
2017-05-27T05:10:00.643Z,9260
2017-05-27T05:11:00.623Z,9304
2017-05-27T05:12:00.622Z,9368
2017-05-27T05:13:00.628Z,9404
2017-05-27T05:14:00.622Z,9432
2017-05-27T05:15:01.743Z,9468
2017-05-27T05:16:00.625Z,9516
2017-05-27T05:17:00.630Z,9568
2017-05-27T05:18:00.630Z,9616
2017-05-27T05:19:00.627Z,9660
2017-05-27T05:20:00.537Z,9728
2017-05-27T05:21:00.631Z,9776
2017-05-27T05:22:00.684Z,9824
2017-05-27T05:23:00.591Z,9848
2017-05-27T05:24:00.636Z,9904
2017-05-27T05:25:00.589Z,9944
2017-05-27T05:26:00.533Z,10012
2017-05-27T05:27:00.636Z,10048
2017-05-27T05:28:00.632Z,10084
2017-05-27T05:29:00.553Z,10120
2017-05-27T05:30:00.547Z,10160
2017-05-27T05:31:00.623Z,10208
2017-05-27T05:32:00.619Z,10268
2017-05-27T05:33:00.620Z,10284
2017-05-27T05:34:00.623Z,10328
2017-05-27T05:35:00.624Z,10376
2017-05-27T05:36:00.633Z,10432
2017-05-27T05:37:00.627Z,10468
2017-05-27T05:38:00.624Z,10520
2017-05-27T05:39:00.774Z,10568
2017-05-27T05:40:00.631Z,10724
2017-05-27T05:41:00.660Z,16828
2017-05-27T05:42:00.634Z,25632
2017-05-27T05:43:00.666Z,26944
2017-05-27T05:44:00.663Z,24704
2017-05-27T05:45:00.780Z,24800
2017-05-27T05:46:00.611Z,27840
2017-05-27T05:47:00.680Z,32928
2017-05-27T05:48:00.669Z,35360
2017-05-27T05:49:00.653Z,34144
2017-05-27T05:50:00.665Z,38912
2017-05-27T05:51:00.560Z,42912
2017-05-27T05:52:00.560Z,40000
2017-05-27T05:53:00.652Z,36000
2017-05-27T05:54:00.569Z,33664
2017-05-27T05:55:00.609Z,34848
2017-05-27T05:56:00.653Z,35424
2017-05-27T05:57:00.571Z,40480
2017-05-27T05:58:00.622Z,45664
2017-05-27T05:59:00.570Z,49952
2017-05-27T06:00:00.614Z,50016
2017-05-27T06:01:01.766Z,51712
2017-05-27T06:02:00.649Z,51616
2017-05-27T06:03:00.668Z,54496
2017-05-27T06:04:00.650Z,54880
2017-05-27T06:05:00.649Z,54144
2017-05-27T06:06:00.649Z,53408
2017-05-27T06:07:00.653Z,52544
2017-05-27T06:08:00.657Z,52640
2017-05-27T06:09:00.655Z,51488
2017-05-27T06:10:00.651Z,58048
2017-05-27T06:11:00.653Z,60704
2017-05-27T06:12:00.651Z,63872
2017-05-27T06:13:00.656Z,64928
2017-05-27T06:14:00.659Z,65888
2017-05-27T06:15:00.654Z,62272
2017-05-27T06:16:00.661Z,58592
2017-05-27T06:17:00.658Z,55552
2017-05-27T06:18:00.656Z,53696
2017-05-27T06:19:00.657Z,53312
2017-05-27T06:20:00.656Z,54208
2017-05-27T06:21:00.689Z,56512
2017-05-27T06:22:00.687Z,58240
2017-05-27T06:23:00.663Z,60352
2017-05-27T06:24:00.688Z,60608
2017-05-27T06:25:00.682Z,60576
2017-05-27T06:26:00.700Z,60992
2017-05-27T06:27:00.658Z,61568
2017-05-27T06:28:00.684Z,62592
2017-05-27T06:29:00.700Z,63328
2017-05-27T06:30:00.630Z,63616
2017-05-27T06:31:00.664Z,63488
2017-05-27T06:32:00.742Z,62816
2017-05-27T06:33:00.661Z,62432
2017-05-27T06:34:00.743Z,62432
2017-05-27T06:35:00.666Z,63232
2017-05-27T06:36:00.659Z,64512
2017-05-27T06:37:00.670Z,66656
2017-05-27T06:38:00.663Z,68704
2017-05-27T06:39:00.669Z,70208
2017-05-27T06:40:00.670Z,70464
2017-05-27T06:41:00.590Z,69984
2017-05-27T06:42:00.581Z,69312
2017-05-27T06:43:00.712Z,68768
2017-05-27T06:44:00.570Z,68448
2017-05-27T06:45:00.574Z,68512
2017-05-27T06:46:00.671Z,69536
2017-05-27T06:47:00.591Z,70368
2017-05-27T06:48:00.594Z,70816
2017-05-27T06:49:00.589Z,71424
2017-05-27T06:50:00.638Z,71488
2017-05-27T06:51:00.700Z,70784
2017-05-27T06:52:00.706Z,71072
2017-05-27T06:53:00.690Z,72128
2017-05-27T06:54:00.695Z,73376
2017-05-27T06:55:00.697Z,74496
2017-05-27T06:56:00.706Z,75616
2017-05-27T06:58:00.700Z,76384
2017-05-27T06:59:00.688Z,76224
2017-05-27T07:00:00.643Z,76256
2017-05-27T07:01:00.764Z,75648
2017-05-27T07:02:00.665Z,75168
2017-05-27T07:03:00.673Z,74784
2017-05-27T07:04:00.669Z,74848
2017-05-27T07:05:00.674Z,75456
2017-05-27T07:06:00.674Z,76160
2017-05-27T07:07:00.676Z,76768
2017-05-27T07:08:00.772Z,77536
2017-05-27T07:09:00.676Z,78368
2017-05-27T07:10:00.673Z,78880
2017-05-27T07:11:00.694Z,79616
2017-05-27T07:12:00.717Z,81440
2017-05-27T07:13:00.820Z,83776
2017-05-27T07:14:00.632Z,85472
2017-05-27T07:15:00.711Z,85728
2017-05-27T07:16:00.707Z,85024
2017-05-27T07:17:00.713Z,83712
2017-05-27T07:18:00.705Z,82368
2017-05-27T07:19:00.722Z,81376
2017-05-27T07:20:00.705Z,82144
2017-05-27T07:21:00.721Z,83424
2017-05-27T07:22:00.733Z,84480
2017-05-27T07:23:00.717Z,84320
2017-05-27T07:24:00.672Z,84512
2017-05-27T07:25:00.732Z,84736
2017-05-27T07:26:00.724Z,84896
2017-05-27T07:27:00.714Z,85120
2017-05-27T07:28:00.716Z,86144
2017-05-27T07:29:00.735Z,86720
2017-05-27T07:30:00.735Z,87552
2017-05-27T07:31:00.731Z,88576
2017-05-27T07:32:00.725Z,89600
2017-05-27T07:33:00.709Z,90016
2017-05-27T07:34:00.734Z,89536
2017-05-27T07:35:00.737Z,88384
2017-05-27T07:36:00.689Z,87104
2017-05-27T07:37:00.828Z,87328
2017-05-27T07:38:00.709Z,88064
2017-05-27T07:39:00.724Z,89792
2017-05-27T07:40:00.695Z,92640
2017-05-27T07:41:00.722Z,94016
2017-05-27T07:42:00.729Z,94016
2017-05-27T07:43:00.723Z,92768
2017-05-27T07:44:00.742Z,90720
2017-05-27T07:45:00.697Z,88704
2017-05-27T07:46:00.698Z,87168
2017-05-27T07:47:00.732Z,87008
2017-05-27T07:48:00.738Z,89152
2017-05-27T07:49:00.728Z,93536
2017-05-27T07:50:00.697Z,97280
2017-05-27T07:51:00.686Z,100256
2017-05-27T07:52:00.630Z,102336
2017-05-27T07:53:00.654Z,102912
2017-05-27T07:54:01.704Z,101664
2017-05-27T07:55:00.640Z,99168
2017-05-27T07:56:00.635Z,96576
2017-05-27T07:57:00.635Z,94560
2017-05-27T07:58:00.631Z,92640
2017-05-27T07:59:00.672Z,91616
2017-05-27T08:00:00.630Z,92096
2017-05-27T08:01:00.793Z,93760
2017-05-27T08:02:00.697Z,95904
2017-05-27T08:03:00.704Z,97952
2017-05-27T08:04:00.701Z,100160
2017-05-27T08:05:00.701Z,102336
2017-05-27T08:06:00.697Z,102464
2017-05-27T08:07:00.707Z,102048
2017-05-27T08:08:00.701Z,101568
2017-05-27T08:09:00.706Z,100768
2017-05-27T08:10:00.703Z,100416
2017-05-27T08:11:00.740Z,100768
2017-05-27T08:12:00.732Z,101888
2017-05-27T08:13:00.741Z,100704
2017-05-27T08:14:00.741Z,99456
2017-05-27T08:15:00.739Z,98848
2017-05-27T08:16:00.745Z,99424
2017-05-27T08:17:00.739Z,101696
2017-05-27T08:18:00.743Z,104352
2017-05-27T08:19:00.734Z,108352
2017-05-27T08:20:00.759Z,112768
2017-05-27T08:21:00.723Z,116480
2017-05-27T08:22:00.719Z,118048
2017-05-27T08:23:00.724Z,117472
2017-05-27T08:24:00.722Z,113920
2017-05-27T08:25:00.724Z,106560
2017-05-27T08:26:00.726Z,99264
2017-05-27T08:27:00.726Z,95136
2017-05-27T08:28:00.724Z,94688
2017-05-27T08:29:00.726Z,98112
2017-05-27T08:30:00.737Z,103680
2017-05-27T08:31:00.728Z,108736
2017-05-27T08:32:00.725Z,112000
2017-05-27T08:33:00.731Z,113088
2017-05-27T08:34:00.834Z,110528
2017-05-27T08:35:00.736Z,108032
2017-05-27T08:36:00.728Z,107040
2017-05-27T08:37:00.735Z,106560
2017-05-27T08:38:00.732Z,108000
2017-05-27T08:39:00.734Z,110816
2017-05-27T08:40:00.733Z,113760
2017-05-27T08:41:00.733Z,115808
2017-05-27T08:42:00.758Z,117248
2017-05-27T08:43:00.764Z,117280
2017-05-27T08:44:00.771Z,116224
2017-05-27T08:45:00.760Z,115616
2017-05-27T08:46:00.759Z,116640
2017-05-27T08:47:00.759Z,118048
2017-05-27T08:48:00.761Z,119040
2017-05-27T08:49:00.766Z,118816
2017-05-27T08:50:00.757Z,117312
2017-05-27T08:51:00.764Z,115072
2017-05-27T08:52:00.739Z,112672
2017-05-27T08:53:00.749Z,111168
2017-05-27T08:54:00.739Z,112928
2017-05-27T08:55:00.755Z,117600
2017-05-27T08:56:00.741Z,120480
2017-05-27T08:57:00.739Z,124224
2017-05-27T08:58:00.744Z,123936
2017-05-27T08:59:00.738Z,122304
2017-05-27T09:00:00.746Z,120768
2017-05-27T09:01:00.741Z,122240
2017-05-27T09:02:00.777Z,122432
2017-05-27T09:03:00.764Z,123328
2017-05-27T09:04:00.765Z,122880
2017-05-27T09:05:00.762Z,124576
2017-05-27T09:06:00.875Z,123520
2017-05-27T09:07:00.768Z,116736
2017-05-27T09:08:00.762Z,52288
2017-05-27T09:09:00.770Z,42336
2017-05-27T09:10:00.789Z,113536
2017-05-27T09:11:00.775Z,85248
2017-05-27T09:12:00.719Z,61280
2017-05-27T09:13:00.676Z,122528
2017-05-27T09:14:00.671Z,121984
2017-05-27T09:15:00.735Z,90752
2017-05-27T09:16:00.741Z,49056
2017-05-27T09:17:00.713Z,41184
2017-05-27T09:18:00.716Z,56992
2017-05-27T09:19:00.716Z,131104
2017-05-27T09:20:00.801Z,141984
2017-05-27T09:21:00.661Z,126976
2017-05-27T09:22:00.753Z,134368
2017-05-27T09:23:00.756Z,136032
2017-05-27T09:24:00.756Z,134912
2017-05-27T09:25:00.755Z,134656
2017-05-27T09:26:00.761Z,132384
2017-05-27T09:27:00.778Z,130976
2017-05-27T09:28:00.756Z,97312
2017-05-27T09:29:00.757Z,124640
2017-05-27T09:30:00.757Z,124064
2017-05-27T09:31:00.838Z,120128
2017-05-27T09:32:00.774Z,42656
2017-05-27T09:33:00.784Z,136704
2017-05-27T09:34:00.778Z,47328
2017-05-27T09:35:00.772Z,89728
2017-05-27T09:36:00.775Z,138784
2017-05-27T09:37:00.785Z,138368
2017-05-27T09:38:00.758Z,135008
2017-05-27T09:39:00.787Z,132736
2017-05-27T09:40:00.820Z,129888
2017-05-27T09:41:00.835Z,127872
2017-05-27T09:42:00.763Z,131264
2017-05-27T09:43:00.842Z,133472
2017-05-27T09:44:00.764Z,131584
2017-05-27T09:45:00.843Z,132032
2017-05-27T09:46:00.766Z,132192
2017-05-27T09:47:00.767Z,132224
2017-05-27T09:48:00.768Z,134464
2017-05-27T09:49:00.768Z,134368
2017-05-27T09:50:00.769Z,133760
2017-05-27T09:51:00.885Z,133792
2017-05-27T09:52:00.801Z,139040
2017-05-27T09:53:00.766Z,139904
2017-05-27T09:54:00.904Z,115520
2017-05-27T09:55:00.797Z,134400
2017-05-27T09:56:00.798Z,131648
2017-05-27T09:57:00.811Z,133376
2017-05-27T09:58:00.766Z,132352
2017-05-27T09:59:00.793Z,132608
2017-05-27T10:00:00.789Z,135008
2017-05-27T10:01:00.791Z,138784
2017-05-27T10:02:00.775Z,137248
2017-05-27T10:03:00.801Z,134304
2017-05-27T10:04:00.776Z,129120
2017-05-27T10:05:00.777Z,124032
2017-05-27T10:06:00.782Z,121312
2017-05-27T10:07:00.780Z,122752
2017-05-27T10:08:00.861Z,127264
2017-05-27T10:09:00.781Z,129440
2017-05-27T10:10:00.783Z,129504
2017-05-27T10:11:00.781Z,126400
2017-05-27T10:12:00.776Z,124864
2017-05-27T10:13:00.794Z,125184
2017-05-27T10:14:00.799Z,124960
2017-05-27T10:15:00.810Z,128608
2017-05-27T10:16:00.808Z,131456
2017-05-27T10:17:00.798Z,133472
2017-05-27T10:18:00.807Z,135872
2017-05-27T10:19:00.812Z,135776
2017-05-27T10:20:00.820Z,134464
2017-05-27T10:21:00.804Z,132736
2017-05-27T10:22:00.810Z,131936
2017-05-27T10:23:00.817Z,131456
2017-05-27T10:24:00.810Z,134752
2017-05-27T10:25:00.801Z,139168
2017-05-27T10:26:00.811Z,141664
2017-05-27T10:27:00.811Z,142528
2017-05-27T10:28:00.803Z,139840
2017-05-27T10:29:00.810Z,136832
2017-05-27T10:30:00.802Z,133536
2017-05-27T10:31:00.814Z,133344
2017-05-27T10:32:00.863Z,134240
2017-05-27T10:33:00.812Z,135424
2017-05-27T10:34:00.818Z,138400
2017-05-27T10:35:00.810Z,136736
2017-05-27T10:36:00.808Z,134656
2017-05-27T10:37:00.822Z,133344
2017-05-27T10:38:00.836Z,133920
2017-05-27T10:39:00.822Z,134272
2017-05-27T10:40:00.812Z,132576
2017-05-27T10:41:00.816Z,137696
2017-05-27T10:42:00.801Z,128416
2017-05-27T10:43:00.806Z,131296
2017-05-27T10:44:00.802Z,138080
2017-05-27T10:45:00.800Z,140928
2017-05-27T10:46:00.799Z,137696
2017-05-27T10:47:00.799Z,138368
2017-05-27T10:48:00.803Z,141024
2017-05-27T10:49:00.800Z,145728
2017-05-27T10:50:00.800Z,146016
2017-05-27T10:51:00.804Z,145248
2017-05-27T10:52:00.815Z,144096
2017-05-27T10:53:00.803Z,144736
2017-05-27T10:54:00.799Z,145760
2017-05-27T10:55:00.804Z,142240
2017-05-27T10:56:00.809Z,144000
2017-05-27T10:57:00.806Z,144608
2017-05-27T10:58:00.808Z,143200
2017-05-27T10:59:00.806Z,137344
2017-05-27T11:00:00.807Z,139232
2017-05-27T11:01:00.809Z,140768
2017-05-27T11:02:00.803Z,142848
2017-05-27T11:03:00.807Z,142880
2017-05-27T11:04:00.801Z,143072
2017-05-27T11:05:00.804Z,142240
2017-05-27T11:06:00.806Z,143008
2017-05-27T11:07:00.803Z,142816
2017-05-27T11:08:00.806Z,142112
2017-05-27T11:09:00.810Z,140288
2017-05-27T11:10:00.800Z,138720
2017-05-27T11:11:00.808Z,137472
2017-05-27T11:12:00.809Z,138112
2017-05-27T11:13:00.810Z,138240
2017-05-27T11:14:00.812Z,137792
2017-05-27T11:15:00.807Z,133664
2017-05-27T11:16:00.891Z,131744
2017-05-27T11:17:00.813Z,130656
2017-05-27T11:18:00.815Z,128832
2017-05-27T11:19:00.815Z,127072
2017-05-27T11:20:00.816Z,125664
2017-05-27T11:21:00.817Z,126880
2017-05-27T11:22:00.816Z,126880
2017-05-27T11:23:00.815Z,127872
2017-05-27T11:24:00.813Z,132928
2017-05-27T11:25:00.819Z,140576
2017-05-27T11:26:00.817Z,145664
2017-05-27T11:27:00.819Z,148160
2017-05-27T11:28:00.817Z,148064
2017-05-27T11:29:00.821Z,147808
2017-05-27T11:30:00.823Z,146304
2017-05-27T11:31:00.823Z,141824
2017-05-27T11:32:00.834Z,137568
2017-05-27T11:33:00.924Z,135616
2017-05-27T11:34:00.816Z,135104
2017-05-27T11:35:00.851Z,137376
2017-05-27T11:36:00.849Z,140768
2017-05-27T11:37:00.849Z,143616
2017-05-27T11:38:00.850Z,145472
2017-05-27T11:39:00.848Z,145920
2017-05-27T11:40:00.790Z,145760
2017-05-27T11:41:00.788Z,146656
2017-05-27T11:42:00.854Z,146304
2017-05-27T11:43:00.865Z,144992
2017-05-27T11:44:00.852Z,146176
2017-05-27T11:45:00.946Z,147776
2017-05-27T11:46:00.833Z,148672
2017-05-27T11:47:00.853Z,148288
2017-05-27T11:48:00.855Z,145760
2017-05-27T11:49:00.787Z,143968
2017-05-27T11:50:00.844Z,143232
2017-05-27T11:51:00.793Z,142944
2017-05-27T11:52:00.842Z,141472
2017-05-27T11:53:00.827Z,140736
2017-05-27T11:54:00.744Z,138368
2017-05-27T11:55:00.831Z,136032
2017-05-27T11:56:00.735Z,136096
2017-05-27T11:57:00.750Z,140352
2017-05-27T11:58:00.734Z,145664
2017-05-27T11:59:00.834Z,152416
2017-05-27T12:00:00.734Z,156192
2017-05-27T12:01:00.738Z,156000
2017-05-27T12:02:00.741Z,151008
2017-05-27T12:03:00.796Z,144576
2017-05-27T12:04:00.857Z,139808
2017-05-27T12:05:00.862Z,138368
2017-05-27T12:06:00.860Z,138976
2017-05-27T12:07:00.866Z,142688
2017-05-27T12:08:00.848Z,148256
2017-05-27T12:09:00.856Z,150528
2017-05-27T12:10:00.872Z,149184
2017-05-27T12:11:00.866Z,145760
2017-05-27T12:12:00.806Z,142400
2017-05-27T12:13:00.914Z,139360
2017-05-27T12:14:00.842Z,138816
2017-05-27T12:15:00.842Z,138176
2017-05-27T12:16:00.839Z,137920
2017-05-27T12:17:00.839Z,136224
2017-05-27T12:18:00.842Z,135168
2017-05-27T12:19:00.847Z,134368
2017-05-27T12:20:00.847Z,135552
2017-05-27T12:21:00.848Z,137472
2017-05-27T12:22:00.845Z,141344
2017-05-27T12:23:00.850Z,143776
2017-05-27T12:24:00.847Z,143872
2017-05-27T12:25:00.845Z,141984
2017-05-27T12:26:00.847Z,140000
2017-05-27T12:27:00.850Z,138752
2017-05-27T12:28:00.846Z,138336
2017-05-27T12:29:00.846Z,139520
2017-05-27T12:30:00.847Z,140064
2017-05-27T12:31:00.850Z,141728
2017-05-27T12:32:00.846Z,141568
2017-05-27T12:33:00.892Z,140096
2017-05-27T12:34:00.890Z,138464
2017-05-27T12:35:00.872Z,138208
2017-05-27T12:36:00.864Z,139520
2017-05-27T12:37:00.896Z,140576
2017-05-27T12:38:00.877Z,140832
2017-05-27T12:39:00.882Z,139424
2017-05-27T12:40:00.871Z,136128
2017-05-27T12:41:00.818Z,136544
2017-05-27T12:42:00.881Z,135808
2017-05-27T12:43:00.879Z,138560
2017-05-27T12:44:00.877Z,141152
2017-05-27T12:45:00.879Z,142144
2017-05-27T12:46:00.879Z,141216
2017-05-27T12:47:00.870Z,138528
2017-05-27T12:48:00.852Z,135616
2017-05-27T12:49:00.851Z,130944
2017-05-27T12:50:00.984Z,127296
2017-05-27T12:51:00.871Z,126016
2017-05-27T12:52:00.889Z,129248
2017-05-27T12:53:00.858Z,132832
2017-05-27T12:54:00.855Z,133344
2017-05-27T12:55:00.858Z,131232
2017-05-27T12:56:00.938Z,129984
2017-05-27T12:57:00.865Z,130272
2017-05-27T12:58:00.856Z,130144
2017-05-27T12:59:00.859Z,127872
2017-05-27T13:00:00.860Z,128224
2017-05-27T13:01:00.861Z,130112
2017-05-27T13:02:00.858Z,130208
2017-05-27T13:03:00.896Z,129376
2017-05-27T13:04:00.869Z,129760
2017-05-27T13:05:00.894Z,129760
2017-05-27T13:06:00.832Z,130080
2017-05-27T13:07:00.885Z,130656
2017-05-27T13:08:00.895Z,132992
2017-05-27T13:09:00.890Z,134432
2017-05-27T13:10:00.895Z,134880
2017-05-27T13:11:00.878Z,134528